sensor_id;sensor_type;location;lat;lon;timestamp;P1;durP1;ratioP1;P2;durP2;ratioP2
80539;SDS011;69869;48.036;15.780;2024-01-15T00:00:17;5.10;;;3.40;;
80539;SDS011;69869;48.036;15.780;2024-01-15T00:02:42;4.97;;;3.70;;
80539;SDS011;69869;48.036;15.780;2024-01-15T00:05:08;4.82;;;3.53;;
80539;SDS011;69869;48.036;15.780;2024-01-15T00:07:35;7.50;;;3.63;;
80539;SDS011;69869;48.036;15.780;2024-01-15T00:10:01;5.18;;;3.72;;
80539;SDS011;69869;48.036;15.780;2024-01-15T00:12:27;6.00;;;3.78;;
80539;SDS011;69869;48.036;15.780;2024-01-15T00:14:53;5.80;;;3.85;;
80539;SDS011;69869;48.036;15.780;2024-01-15T00:17:19;5.88;;;3.65;;
80539;SDS011;69869;48.036;15.780;2024-01-15T00:19:44;5.25;;;3.50;;
80539;SDS011;69869;48.036;15.780;2024-01-15T00:22:10;6.10;;;3.55;;
80539;SDS011;69869;48.036;15.780;2024-01-15T00:24:35;6.47;;;3.78;;
80539;SDS011;69869;48.036;15.780;2024-01-15T00:27:01;7.20;;;4.35;;
80539;SDS011;69869;48.036;15.780;2024-01-15T00:29:27;5.80;;;3.70;;
80539;SDS011;69869;48.036;15.780;2024-01-15T00:31:52;4.25;;;3.33;;
80539;SDS011;69869;48.036;15.780;2024-01-15T00:34:18;5.70;;;3.78;;
80539;SDS011;69869;48.036;15.780;2024-01-15T00:36:44;5.30;;;3.40;;
80539;SDS011;69869;48.036;15.780;2024-01-15T00:39:09;7.72;;;4.03;;
80539;SDS011;69869;48.036;15.780;2024-01-15T00:41:35;6.32;;;3.88;;
80539;SDS011;69869;48.036;15.780;2024-01-15T00:44:01;6.38;;;3.78;;
80539;SDS011;69869;48.036;15.780;2024-01-15T00:46:28;4.63;;;3.33;;
80539;SDS011;69869;48.036;15.780;2024-01-15T00:48:53;6.68;;;4.15;;
80539;SDS011;69869;48.036;15.780;2024-01-15T00:51:19;5.55;;;3.65;;
80539;SDS011;69869;48.036;15.780;2024-01-15T00:53:45;4.93;;;3.50;;
80539;SDS011;69869;48.036;15.780;2024-01-15T00:56:10;5.80;;;3.63;;
80539;SDS011;69869;48.036;15.780;2024-01-15T00:58:36;4.93;;;3.58;;
80539;SDS011;69869;48.036;15.780;2024-01-15T01:01:02;5.53;;;3.70;;
80539;SDS011;69869;48.036;15.780;2024-01-15T01:03:27;5.95;;;3.75;;
80539;SDS011;69869;48.036;15.780;2024-01-15T01:05:53;5.93;;;3.88;;
80539;SDS011;69869;48.036;15.780;2024-01-15T01:08:19;4.32;;;3.28;;
80539;SDS011;69869;48.036;15.780;2024-01-15T01:10:44;5.25;;;3.60;;
80539;SDS011;69869;48.036;15.780;2024-01-15T01:13:10;5.07;;;3.80;;
80539;SDS011;69869;48.036;15.780;2024-01-15T01:15:35;4.82;;;3.53;;
80539;SDS011;69869;48.036;15.780;2024-01-15T01:18:02;5.32;;;3.35;;
80539;SDS011;69869;48.036;15.780;2024-01-15T01:20:28;4.65;;;3.30;;
80539;SDS011;69869;48.036;15.780;2024-01-15T01:22:53;5.13;;;3.30;;
80539;SDS011;69869;48.036;15.780;2024-01-15T01:25:19;4.60;;;3.17;;
80539;SDS011;69869;48.036;15.780;2024-01-15T01:27:45;4.43;;;3.40;;
80539;SDS011;69869;48.036;15.780;2024-01-15T01:30:10;5.13;;;3.45;;
80539;SDS011;69869;48.036;15.780;2024-01-15T01:32:36;5.18;;;3.45;;
80539;SDS011;69869;48.036;15.780;2024-01-15T01:35:02;5.00;;;3.20;;
80539;SDS011;69869;48.036;15.780;2024-01-15T01:37:27;3.97;;;3.10;;
80539;SDS011;69869;48.036;15.780;2024-01-15T01:39:53;4.38;;;3.05;;
80539;SDS011;69869;48.036;15.780;2024-01-15T01:42:19;4.88;;;3.53;;
80539;SDS011;69869;48.036;15.780;2024-01-15T01:44:44;4.25;;;3.33;;
80539;SDS011;69869;48.036;15.780;2024-01-15T01:47:10;5.07;;;3.58;;
80539;SDS011;69869;48.036;15.780;2024-01-15T01:49:36;5.95;;;4.07;;
80539;SDS011;69869;48.036;15.780;2024-01-15T01:52:02;5.70;;;3.97;;
80539;SDS011;69869;48.036;15.780;2024-01-15T01:54:32;4.93;;;3.58;;
80539;SDS011;69869;48.036;15.780;2024-01-15T01:56:58;6.63;;;3.85;;
80539;SDS011;69869;48.036;15.780;2024-01-15T01:59:27;4.18;;;3.33;;
80539;SDS011;69869;48.036;15.780;2024-01-15T02:01:56;5.50;;;3.63;;
80539;SDS011;69869;48.036;15.780;2024-01-15T02:04:23;7.22;;;3.95;;
80539;SDS011;69869;48.036;15.780;2024-01-15T02:06:50;5.88;;;3.92;;
80539;SDS011;69869;48.036;15.780;2024-01-15T02:09:19;4.50;;;3.53;;
80539;SDS011;69869;48.036;15.780;2024-01-15T02:11:48;5.55;;;3.53;;
80539;SDS011;69869;48.036;15.780;2024-01-15T02:14:14;5.15;;;3.67;;
80539;SDS011;69869;48.036;15.780;2024-01-15T02:16:40;5.05;;;3.63;;
80539;SDS011;69869;48.036;15.780;2024-01-15T02:19:06;4.28;;;3.47;;
80539;SDS011;69869;48.036;15.780;2024-01-15T02:21:31;5.85;;;3.70;;
80539;SDS011;69869;48.036;15.780;2024-01-15T02:23:57;4.43;;;3.35;;
80539;SDS011;69869;48.036;15.780;2024-01-15T02:26:23;5.10;;;3.47;;
80539;SDS011;69869;48.036;15.780;2024-01-15T02:28:50;4.15;;;3.10;;
80539;SDS011;69869;48.036;15.780;2024-01-15T02:31:16;5.10;;;3.50;;
80539;SDS011;69869;48.036;15.780;2024-01-15T02:33:42;5.05;;;3.33;;
80539;SDS011;69869;48.036;15.780;2024-01-15T02:36:08;4.05;;;3.20;;
80539;SDS011;69869;48.036;15.780;2024-01-15T02:38:34;4.43;;;3.28;;
80539;SDS011;69869;48.036;15.780;2024-01-15T02:41:00;4.35;;;3.30;;
80539;SDS011;69869;48.036;15.780;2024-01-15T02:43:26;4.35;;;3.40;;
80539;SDS011;69869;48.036;15.780;2024-01-15T02:45:51;5.70;;;3.55;;
80539;SDS011;69869;48.036;15.780;2024-01-15T02:48:17;4.30;;;3.03;;
80539;SDS011;69869;48.036;15.780;2024-01-15T02:50:42;3.67;;;2.90;;
80539;SDS011;69869;48.036;15.780;2024-01-15T02:53:08;4.50;;;3.38;;
80539;SDS011;69869;48.036;15.780;2024-01-15T02:55:34;4.95;;;3.70;;
80539;SDS011;69869;48.036;15.780;2024-01-15T02:57:59;5.35;;;3.50;;
80539;SDS011;69869;48.036;15.780;2024-01-15T03:00:25;5.72;;;3.75;;
80539;SDS011;69869;48.036;15.780;2024-01-15T03:02:51;5.00;;;3.55;;
80539;SDS011;69869;48.036;15.780;2024-01-15T03:05:16;5.70;;;3.70;;
80539;SDS011;69869;48.036;15.780;2024-01-15T03:07:42;4.80;;;3.50;;
80539;SDS011;69869;48.036;15.780;2024-01-15T03:10:08;5.05;;;3.65;;
80539;SDS011;69869;48.036;15.780;2024-01-15T03:12:34;4.47;;;3.50;;
80539;SDS011;69869;48.036;15.780;2024-01-15T03:15:00;3.75;;;3.20;;
80539;SDS011;69869;48.036;15.780;2024-01-15T03:17:26;4.05;;;3.13;;
80539;SDS011;69869;48.036;15.780;2024-01-15T03:19:51;4.35;;;3.47;;
80539;SDS011;69869;48.036;15.780;2024-01-15T03:22:17;3.75;;;3.22;;
80539;SDS011;69869;48.036;15.780;2024-01-15T03:24:43;4.85;;;3.33;;
80539;SDS011;69869;48.036;15.780;2024-01-15T03:27:09;5.32;;;3.60;;
80539;SDS011;69869;48.036;15.780;2024-01-15T03:29:35;4.00;;;3.03;;
80539;SDS011;69869;48.036;15.780;2024-01-15T03:32:00;3.97;;;3.10;;
80539;SDS011;69869;48.036;15.780;2024-01-15T03:34:26;3.92;;;2.95;;
80539;SDS011;69869;48.036;15.780;2024-01-15T03:36:52;3.83;;;3.20;;
80539;SDS011;69869;48.036;15.780;2024-01-15T03:39:17;4.05;;;3.20;;
80539;SDS011;69869;48.036;15.780;2024-01-15T03:41:43;3.88;;;3.17;;
80539;SDS011;69869;48.036;15.780;2024-01-15T03:44:08;3.78;;;3.25;;
80539;SDS011;69869;48.036;15.780;2024-01-15T03:46:34;4.43;;;3.13;;
80539;SDS011;69869;48.036;15.780;2024-01-15T03:49:00;3.60;;;2.78;;
80539;SDS011;69869;48.036;15.780;2024-01-15T03:51:25;3.55;;;2.70;;
80539;SDS011;69869;48.036;15.780;2024-01-15T03:53:51;4.22;;;3.05;;
80539;SDS011;69869;48.036;15.780;2024-01-15T03:56:17;2.97;;;2.67;;
80539;SDS011;69869;48.036;15.780;2024-01-15T03:58:42;3.53;;;3.00;;
80539;SDS011;69869;48.036;15.780;2024-01-15T04:01:11;3.63;;;2.83;;
80539;SDS011;69869;48.036;15.780;2024-01-15T04:03:37;2.85;;;2.53;;
80539;SDS011;69869;48.036;15.780;2024-01-15T04:06:03;3.13;;;2.83;;
80539;SDS011;69869;48.036;15.780;2024-01-15T04:08:29;3.45;;;2.80;;
80539;SDS011;69869;48.036;15.780;2024-01-15T04:10:55;3.10;;;2.80;;
80539;SDS011;69869;48.036;15.780;2024-01-15T04:13:21;3.80;;;2.95;;
80539;SDS011;69869;48.036;15.780;2024-01-15T04:15:47;2.55;;;2.35;;
80539;SDS011;69869;48.036;15.780;2024-01-15T04:18:15;2.60;;;2.40;;
80539;SDS011;69869;48.036;15.780;2024-01-15T04:20:42;2.95;;;2.67;;
80539;SDS011;69869;48.036;15.780;2024-01-15T04:23:08;2.50;;;2.30;;
80539;SDS011;69869;48.036;15.780;2024-01-15T04:25:33;3.25;;;2.53;;
80539;SDS011;69869;48.036;15.780;2024-01-15T04:27:59;2.85;;;2.50;;
80539;SDS011;69869;48.036;15.780;2024-01-15T04:30:25;3.35;;;2.53;;
80539;SDS011;69869;48.036;15.780;2024-01-15T04:32:50;3.25;;;2.42;;
80539;SDS011;69869;48.036;15.780;2024-01-15T04:35:16;2.63;;;2.33;;
80539;SDS011;69869;48.036;15.780;2024-01-15T04:37:42;3.17;;;2.60;;
80539;SDS011;69869;48.036;15.780;2024-01-15T04:40:08;3.80;;;2.40;;
80539;SDS011;69869;48.036;15.780;2024-01-15T04:42:34;2.97;;;2.38;;
80539;SDS011;69869;48.036;15.780;2024-01-15T04:45:00;2.58;;;2.08;;
80539;SDS011;69869;48.036;15.780;2024-01-15T04:47:25;2.97;;;2.40;;
80539;SDS011;69869;48.036;15.780;2024-01-15T04:49:51;3.17;;;2.35;;
80539;SDS011;69869;48.036;15.780;2024-01-15T04:52:17;2.85;;;2.20;;
80539;SDS011;69869;48.036;15.780;2024-01-15T04:54:42;3.10;;;2.50;;
80539;SDS011;69869;48.036;15.780;2024-01-15T04:57:08;3.10;;;2.55;;
80539;SDS011;69869;48.036;15.780;2024-01-15T04:59:34;2.80;;;2.50;;
80539;SDS011;69869;48.036;15.780;2024-01-15T05:01:59;4.55;;;2.78;;
80539;SDS011;69869;48.036;15.780;2024-01-15T05:04:25;3.90;;;3.00;;
80539;SDS011;69869;48.036;15.780;2024-01-15T05:06:50;2.80;;;2.42;;
80539;SDS011;69869;48.036;15.780;2024-01-15T05:09:16;4.03;;;3.13;;
80539;SDS011;69869;48.036;15.780;2024-01-15T05:11:43;3.55;;;3.00;;
80539;SDS011;69869;48.036;15.780;2024-01-15T05:14:08;4.20;;;3.30;;
80539;SDS011;69869;48.036;15.780;2024-01-15T05:16:34;4.53;;;2.90;;
80539;SDS011;69869;48.036;15.780;2024-01-15T05:19:00;5.32;;;3.53;;
80539;SDS011;69869;48.036;15.780;2024-01-15T05:21:25;5.13;;;3.55;;
80539;SDS011;69869;48.036;15.780;2024-01-15T05:23:51;8.27;;;3.88;;
80539;SDS011;69869;48.036;15.780;2024-01-15T05:26:17;5.97;;;3.75;;
80539;SDS011;69869;48.036;15.780;2024-01-15T05:28:42;5.93;;;3.28;;
80539;SDS011;69869;48.036;15.780;2024-01-15T05:31:08;6.35;;;3.83;;
80539;SDS011;69869;48.036;15.780;2024-01-15T05:33:34;5.22;;;3.50;;
80539;SDS011;69869;48.036;15.780;2024-01-15T05:36:00;5.35;;;3.35;;
80539;SDS011;69869;48.036;15.780;2024-01-15T05:38:25;6.47;;;4.00;;
80539;SDS011;69869;48.036;15.780;2024-01-15T05:40:52;5.78;;;3.38;;
80539;SDS011;69869;48.036;15.780;2024-01-15T05:43:18;5.82;;;3.45;;
80539;SDS011;69869;48.036;15.780;2024-01-15T05:45:44;5.03;;;3.40;;
80539;SDS011;69869;48.036;15.780;2024-01-15T05:48:10;4.97;;;3.47;;
80539;SDS011;69869;48.036;15.780;2024-01-15T05:50:36;6.80;;;3.85;;
80539;SDS011;69869;48.036;15.780;2024-01-15T05:53:02;4.72;;;3.42;;
80539;SDS011;69869;48.036;15.780;2024-01-15T05:55:28;5.50;;;3.75;;
80539;SDS011;69869;48.036;15.780;2024-01-15T05:57:54;5.18;;;3.70;;
80539;SDS011;69869;48.036;15.780;2024-01-15T06:00:20;8.00;;;4.40;;
80539;SDS011;69869;48.036;15.780;2024-01-15T06:02:45;4.35;;;3.47;;
80539;SDS011;69869;48.036;15.780;2024-01-15T06:05:11;6.03;;;3.72;;
80539;SDS011;69869;48.036;15.780;2024-01-15T06:07:36;7.88;;;4.13;;
80539;SDS011;69869;48.036;15.780;2024-01-15T06:10:02;5.65;;;3.90;;
80539;SDS011;69869;48.036;15.780;2024-01-15T06:12:29;5.88;;;3.58;;
80539;SDS011;69869;48.036;15.780;2024-01-15T06:14:56;5.78;;;3.83;;
80539;SDS011;69869;48.036;15.780;2024-01-15T06:17:21;6.78;;;4.07;;
80539;SDS011;69869;48.036;15.780;2024-01-15T06:19:47;5.90;;;3.70;;
80539;SDS011;69869;48.036;15.780;2024-01-15T06:22:12;4.65;;;3.60;;
80539;SDS011;69869;48.036;15.780;2024-01-15T06:24:38;5.63;;;3.80;;
80539;SDS011;69869;48.036;15.780;2024-01-15T06:27:04;5.53;;;3.83;;
80539;SDS011;69869;48.036;15.780;2024-01-15T06:29:29;6.13;;;3.65;;
80539;SDS011;69869;48.036;15.780;2024-01-15T06:31:55;6.65;;;3.83;;
80539;SDS011;69869;48.036;15.780;2024-01-15T06:34:21;5.07;;;3.65;;
80539;SDS011;69869;48.036;15.780;2024-01-15T06:36:46;8.00;;;4.28;;
80539;SDS011;69869;48.036;15.780;2024-01-15T06:39:12;5.32;;;3.60;;
80539;SDS011;69869;48.036;15.780;2024-01-15T06:41:38;6.25;;;3.55;;
80539;SDS011;69869;48.036;15.780;2024-01-15T06:44:08;5.65;;;3.80;;
80539;SDS011;69869;48.036;15.780;2024-01-15T06:46:35;6.03;;;3.72;;
80539;SDS011;69869;48.036;15.780;2024-01-15T06:49:01;4.10;;;3.20;;
80539;SDS011;69869;48.036;15.780;2024-01-15T06:51:26;4.85;;;3.58;;
80539;SDS011;69869;48.036;15.780;2024-01-15T06:53:52;3.97;;;3.28;;
80539;SDS011;69869;48.036;15.780;2024-01-15T06:56:18;6.15;;;3.55;;
80539;SDS011;69869;48.036;15.780;2024-01-15T06:58:43;6.53;;;4.28;;
80539;SDS011;69869;48.036;15.780;2024-01-15T07:01:09;5.78;;;3.70;;
80539;SDS011;69869;48.036;15.780;2024-01-15T07:03:35;6.90;;;3.90;;
80539;SDS011;69869;48.036;15.780;2024-01-15T07:06:01;5.18;;;3.67;;
80539;SDS011;69869;48.036;15.780;2024-01-15T07:08:26;7.55;;;3.83;;
80539;SDS011;69869;48.036;15.780;2024-01-15T07:10:55;6.00;;;4.13;;
80539;SDS011;69869;48.036;15.780;2024-01-15T07:13:20;4.65;;;3.30;;
80539;SDS011;69869;48.036;15.780;2024-01-15T07:15:46;3.88;;;3.13;;
80539;SDS011;69869;48.036;15.780;2024-01-15T07:18:12;4.97;;;3.53;;
80539;SDS011;69869;48.036;15.780;2024-01-15T07:20:37;5.07;;;3.60;;
80539;SDS011;69869;48.036;15.780;2024-01-15T07:23:03;4.30;;;3.25;;
80539;SDS011;69869;48.036;15.780;2024-01-15T07:25:29;4.43;;;3.25;;
80539;SDS011;69869;48.036;15.780;2024-01-15T07:27:54;4.88;;;3.50;;
80539;SDS011;69869;48.036;15.780;2024-01-15T07:30:20;4.65;;;3.28;;
80539;SDS011;69869;48.036;15.780;2024-01-15T07:32:47;3.55;;;2.80;;
80539;SDS011;69869;48.036;15.780;2024-01-15T07:35:13;3.65;;;3.08;;
80539;SDS011;69869;48.036;15.780;2024-01-15T07:37:40;3.65;;;3.00;;
80539;SDS011;69869;48.036;15.780;2024-01-15T07:40:06;3.15;;;2.75;;
80539;SDS011;69869;48.036;15.780;2024-01-15T07:42:33;3.58;;;2.88;;
80539;SDS011;69869;48.036;15.780;2024-01-15T07:44:59;4.18;;;3.00;;
80539;SDS011;69869;48.036;15.780;2024-01-15T07:47:26;3.75;;;2.75;;
80539;SDS011;69869;48.036;15.780;2024-01-15T07:49:52;3.25;;;2.72;;
80539;SDS011;69869;48.036;15.780;2024-01-15T07:52:18;3.85;;;3.08;;
80539;SDS011;69869;48.036;15.780;2024-01-15T07:54:43;3.65;;;2.95;;
80539;SDS011;69869;48.036;15.780;2024-01-15T07:57:10;3.83;;;2.80;;
80539;SDS011;69869;48.036;15.780;2024-01-15T07:59:35;3.35;;;2.65;;
80539;SDS011;69869;48.036;15.780;2024-01-15T08:02:01;3.85;;;2.80;;
80539;SDS011;69869;48.036;15.780;2024-01-15T08:04:27;3.20;;;2.55;;
80539;SDS011;69869;48.036;15.780;2024-01-15T08:06:53;3.30;;;2.67;;
80539;SDS011;69869;48.036;15.780;2024-01-15T08:09:19;3.13;;;2.83;;
80539;SDS011;69869;48.036;15.780;2024-01-15T08:11:44;3.40;;;2.72;;
80539;SDS011;69869;48.036;15.780;2024-01-15T08:14:10;5.13;;;2.97;;
80539;SDS011;69869;48.036;15.780;2024-01-15T08:16:37;4.85;;;2.72;;
80539;SDS011;69869;48.036;15.780;2024-01-15T08:19:03;2.65;;;2.40;;
80539;SDS011;69869;48.036;15.780;2024-01-15T08:21:29;2.97;;;2.42;;
80539;SDS011;69869;48.036;15.780;2024-01-15T08:23:57;3.35;;;2.50;;
80539;SDS011;69869;48.036;15.780;2024-01-15T08:26:24;3.80;;;3.08;;
80539;SDS011;69869;48.036;15.780;2024-01-15T08:28:53;2.58;;;2.17;;
80539;SDS011;69869;48.036;15.780;2024-01-15T08:31:19;2.50;;;2.20;;
80539;SDS011;69869;48.036;15.780;2024-01-15T08:33:45;2.53;;;2.30;;
80539;SDS011;69869;48.036;15.780;2024-01-15T08:36:11;2.35;;;2.13;;
80539;SDS011;69869;48.036;15.780;2024-01-15T08:38:36;2.65;;;2.25;;
80539;SDS011;69869;48.036;15.780;2024-01-15T08:41:02;3.00;;;2.50;;
80539;SDS011;69869;48.036;15.780;2024-01-15T08:43:28;2.40;;;2.20;;
80539;SDS011;69869;48.036;15.780;2024-01-15T08:45:56;3.40;;;2.67;;
80539;SDS011;69869;48.036;15.780;2024-01-15T08:48:22;2.53;;;2.33;;
80539;SDS011;69869;48.036;15.780;2024-01-15T08:50:47;2.63;;;2.10;;
80539;SDS011;69869;48.036;15.780;2024-01-15T08:53:13;2.90;;;2.22;;
80539;SDS011;69869;48.036;15.780;2024-01-15T08:55:39;2.53;;;2.22;;
80539;SDS011;69869;48.036;15.780;2024-01-15T08:58:07;2.20;;;2.00;;
80539;SDS011;69869;48.036;15.780;2024-01-15T09:00:33;3.45;;;2.03;;
80539;SDS011;69869;48.036;15.780;2024-01-15T09:02:59;2.70;;;2.20;;
80539;SDS011;69869;48.036;15.780;2024-01-15T09:05:24;2.28;;;2.08;;
80539;SDS011;69869;48.036;15.780;2024-01-15T09:07:50;2.22;;;2.03;;
80539;SDS011;69869;48.036;15.780;2024-01-15T09:10:17;2.40;;;2.00;;
80539;SDS011;69869;48.036;15.780;2024-01-15T09:12:43;3.03;;;2.10;;
80539;SDS011;69869;48.036;15.780;2024-01-15T09:15:09;3.05;;;2.10;;
80539;SDS011;69869;48.036;15.780;2024-01-15T09:17:35;2.85;;;2.10;;
80539;SDS011;69869;48.036;15.780;2024-01-15T09:20:00;2.40;;;2.20;;
80539;SDS011;69869;48.036;15.780;2024-01-15T09:22:26;2.25;;;2.05;;
80539;SDS011;69869;48.036;15.780;2024-01-15T09:24:52;2.40;;;1.95;;
80539;SDS011;69869;48.036;15.780;2024-01-15T09:27:17;2.33;;;2.10;;
80539;SDS011;69869;48.036;15.780;2024-01-15T09:29:43;3.03;;;2.33;;
80539;SDS011;69869;48.036;15.780;2024-01-15T09:32:10;2.13;;;1.92;;
80539;SDS011;69869;48.036;15.780;2024-01-15T09:34:37;2.58;;;1.80;;
80539;SDS011;69869;48.036;15.780;2024-01-15T09:37:03;2.10;;;1.90;;
80539;SDS011;69869;48.036;15.780;2024-01-15T09:39:29;2.50;;;2.22;;
80539;SDS011;69869;48.036;15.780;2024-01-15T09:41:57;1.98;;;1.77;;
80539;SDS011;69869;48.036;15.780;2024-01-15T09:44:23;2.00;;;1.80;;
80539;SDS011;69869;48.036;15.780;2024-01-15T09:46:49;1.98;;;1.88;;
80539;SDS011;69869;48.036;15.780;2024-01-15T09:49:16;2.10;;;1.90;;
80539;SDS011;69869;48.036;15.780;2024-01-15T09:51:43;2.00;;;1.80;;
80539;SDS011;69869;48.036;15.780;2024-01-15T09:54:09;2.28;;;2.08;;
80539;SDS011;69869;48.036;15.780;2024-01-15T09:56:35;3.22;;;1.75;;
80539;SDS011;69869;48.036;15.780;2024-01-15T09:59:01;1.90;;;1.80;;
80539;SDS011;69869;48.036;15.780;2024-01-15T10:01:28;2.25;;;1.85;;
80539;SDS011;69869;48.036;15.780;2024-01-15T10:03:56;1.80;;;1.70;;
80539;SDS011;69869;48.036;15.780;2024-01-15T10:06:21;2.28;;;1.80;;
80539;SDS011;69869;48.036;15.780;2024-01-15T10:08:48;1.80;;;1.70;;
80539;SDS011;69869;48.036;15.780;2024-01-15T10:11:15;1.90;;;1.70;;
80539;SDS011;69869;48.036;15.780;2024-01-15T10:13:41;1.70;;;1.60;;
80539;SDS011;69869;48.036;15.780;2024-01-15T10:16:08;2.10;;;1.90;;
80539;SDS011;69869;48.036;15.780;2024-01-15T10:18:34;1.73;;;1.63;;
80539;SDS011;69869;48.036;15.780;2024-01-15T10:21:02;2.28;;;1.98;;
80539;SDS011;69869;48.036;15.780;2024-01-15T10:23:28;2.17;;;1.70;;
80539;SDS011;69869;48.036;15.780;2024-01-15T10:25:57;2.08;;;1.77;;
80539;SDS011;69869;48.036;15.780;2024-01-15T10:28:23;1.92;;;1.40;;
80539;SDS011;69869;48.036;15.780;2024-01-15T10:30:52;2.10;;;1.90;;
80539;SDS011;69869;48.036;15.780;2024-01-15T10:33:23;2.33;;;1.98;;
80539;SDS011;69869;48.036;15.780;2024-01-15T10:35:55;1.52;;;1.42;;
80539;SDS011;69869;48.036;15.780;2024-01-15T10:38:21;1.77;;;1.67;;
80539;SDS011;69869;48.036;15.780;2024-01-15T10:40:50;1.55;;;1.45;;
80539;SDS011;69869;48.036;15.780;2024-01-15T10:43:17;1.80;;;1.70;;
80539;SDS011;69869;48.036;15.780;2024-01-15T10:45:46;1.73;;;1.63;;
80539;SDS011;69869;48.036;15.780;2024-01-15T10:48:12;2.35;;;1.55;;
80539;SDS011;69869;48.036;15.780;2024-01-15T10:50:38;1.90;;;1.65;;
80539;SDS011;69869;48.036;15.780;2024-01-15T10:53:05;2.30;;;1.80;;
80539;SDS011;69869;48.036;15.780;2024-01-15T10:55:34;2.22;;;1.80;;
80539;SDS011;69869;48.036;15.780;2024-01-15T10:58:00;1.52;;;1.42;;
80539;SDS011;69869;48.036;15.780;2024-01-15T11:00:28;1.50;;;1.40;;
80539;SDS011;69869;48.036;15.780;2024-01-15T11:02:54;1.60;;;1.50;;
80539;SDS011;69869;48.036;15.780;2024-01-15T11:05:21;1.63;;;1.52;;
80539;SDS011;69869;48.036;15.780;2024-01-15T11:07:50;1.73;;;1.63;;
80539;SDS011;69869;48.036;15.780;2024-01-15T11:13:13;1.63;;;1.52;;
80539;SDS011;69869;48.036;15.780;2024-01-15T11:15:57;1.40;;;1.30;;
80539;SDS011;69869;48.036;15.780;2024-01-15T11:18:32;1.60;;;1.50;;
80539;SDS011;69869;48.036;15.780;2024-01-15T11:23:46;1.73;;;1.63;;
80539;SDS011;69869;48.036;15.780;2024-01-15T11:28:58;1.45;;;1.35;;
80539;SDS011;69869;48.036;15.780;2024-01-15T11:33:54;1.70;;;1.40;;
80539;SDS011;69869;48.036;15.780;2024-01-15T11:36:21;1.30;;;1.20;;
80539;SDS011;69869;48.036;15.780;2024-01-15T11:41:58;2.20;;;1.43;;
80539;SDS011;69869;48.036;15.780;2024-01-15T11:44:25;1.60;;;1.42;;
80539;SDS011;69869;48.036;15.780;2024-01-15T11:47:01;1.50;;;1.40;;
80539;SDS011;69869;48.036;15.780;2024-01-15T11:52:18;1.20;;;1.10;;
80539;SDS011;69869;48.036;15.780;2024-01-15T11:54:55;1.98;;;1.08;;
80539;SDS011;69869;48.036;15.780;2024-01-15T11:57:51;1.40;;;1.30;;
80539;SDS011;69869;48.036;15.780;2024-01-15T12:00:19;1.83;;;1.08;;
80539;SDS011;69869;48.036;15.780;2024-01-15T12:02:46;1.38;;;1.27;;
80539;SDS011;69869;48.036;15.780;2024-01-15T12:05:14;1.02;;;1.00;;
80539;SDS011;69869;48.036;15.780;2024-01-15T12:07:41;1.30;;;1.20;;
80539;SDS011;69869;48.036;15.780;2024-01-15T12:10:09;1.00;;;1.00;;
80539;SDS011;69869;48.036;15.780;2024-01-15T12:15:15;1.20;;;1.10;;
80539;SDS011;69869;48.036;15.780;2024-01-15T12:17:41;1.25;;;1.15;;
80539;SDS011;69869;48.036;15.780;2024-01-15T12:20:07;0.95;;;0.95;;
80539;SDS011;69869;48.036;15.780;2024-01-15T12:22:33;1.48;;;1.20;;
80539;SDS011;69869;48.036;15.780;2024-01-15T12:24:58;1.13;;;1.13;;
80539;SDS011;69869;48.036;15.780;2024-01-15T12:27:24;1.35;;;1.25;;
80539;SDS011;69869;48.036;15.780;2024-01-15T12:29:52;1.00;;;1.00;;
80539;SDS011;69869;48.036;15.780;2024-01-15T12:32:18;1.10;;;1.08;;
80539;SDS011;69869;48.036;15.780;2024-01-15T12:34:44;1.83;;;1.10;;
80539;SDS011;69869;48.036;15.780;2024-01-15T12:37:09;1.15;;;1.10;;
80539;SDS011;69869;48.036;15.780;2024-01-15T12:39:37;1.27;;;1.17;;
80539;SDS011;69869;48.036;15.780;2024-01-15T12:42:03;1.10;;;1.10;;
80539;SDS011;69869;48.036;15.780;2024-01-15T12:44:30;1.40;;;1.30;;
80539;SDS011;69869;48.036;15.780;2024-01-15T12:46:56;1.10;;;1.00;;
80539;SDS011;69869;48.036;15.780;2024-01-15T12:49:23;1.08;;;1.08;;
80539;SDS011;69869;48.036;15.780;2024-01-15T12:51:56;1.20;;;1.10;;
80539;SDS011;69869;48.036;15.780;2024-01-15T12:54:23;1.40;;;1.30;;
80539;SDS011;69869;48.036;15.780;2024-01-15T12:56:49;1.33;;;1.20;;
80539;SDS011;69869;48.036;15.780;2024-01-15T12:59:15;0.98;;;0.93;;
80539;SDS011;69869;48.036;15.780;2024-01-15T13:01:41;1.33;;;1.23;;
80539;SDS011;69869;48.036;15.780;2024-01-15T13:04:07;0.88;;;0.88;;
80539;SDS011;69869;48.036;15.780;2024-01-15T13:06:36;1.00;;;1.00;;
80539;SDS011;69869;48.036;15.780;2024-01-15T13:09:03;1.20;;;1.10;;
80539;SDS011;69869;48.036;15.780;2024-01-15T13:11:32;0.90;;;0.90;;
80539;SDS011;69869;48.036;15.780;2024-01-15T13:13:58;1.08;;;0.98;;
80539;SDS011;69869;48.036;15.780;2024-01-15T13:16:24;1.40;;;1.10;;
80539;SDS011;69869;48.036;15.780;2024-01-15T13:18:52;1.30;;;0.95;;
80539;SDS011;69869;48.036;15.780;2024-01-15T13:21:17;1.33;;;1.10;;
80539;SDS011;69869;48.036;15.780;2024-01-15T13:23:43;1.50;;;1.40;;
80539;SDS011;69869;48.036;15.780;2024-01-15T13:26:09;1.00;;;1.00;;
80539;SDS011;69869;48.036;15.780;2024-01-15T13:28:34;0.95;;;0.95;;
80539;SDS011;69869;48.036;15.780;2024-01-15T13:31:00;1.27;;;1.17;;
80539;SDS011;69869;48.036;15.780;2024-01-15T13:33:26;1.20;;;1.10;;
80539;SDS011;69869;48.036;15.780;2024-01-15T13:35:51;1.20;;;1.10;;
80539;SDS011;69869;48.036;15.780;2024-01-15T13:38:17;1.27;;;1.17;;
80539;SDS011;69869;48.036;15.780;2024-01-15T13:40:43;1.20;;;1.10;;
80539;SDS011;69869;48.036;15.780;2024-01-15T13:43:11;1.20;;;1.10;;
80539;SDS011;69869;48.036;15.780;2024-01-15T13:45:39;1.30;;;1.20;;
80539;SDS011;69869;48.036;15.780;2024-01-15T13:48:06;1.05;;;1.00;;
80539;SDS011;69869;48.036;15.780;2024-01-15T13:50:33;1.40;;;1.30;;
80539;SDS011;69869;48.036;15.780;2024-01-15T13:53:00;1.40;;;1.30;;
80539;SDS011;69869;48.036;15.780;2024-01-15T13:55:26;1.00;;;1.00;;
80539;SDS011;69869;48.036;15.780;2024-01-15T13:57:53;1.27;;;1.17;;
80539;SDS011;69869;48.036;15.780;2024-01-15T14:00:19;1.33;;;1.13;;
80539;SDS011;69869;48.036;15.780;2024-01-15T14:02:45;1.80;;;1.10;;
80539;SDS011;69869;48.036;15.780;2024-01-15T14:05:11;1.20;;;1.00;;
80539;SDS011;69869;48.036;15.780;2024-01-15T14:07:40;0.90;;;0.90;;
80539;SDS011;69869;48.036;15.780;2024-01-15T14:10:09;0.90;;;0.90;;
80539;SDS011;69869;48.036;15.780;2024-01-15T14:12:35;1.33;;;1.10;;
80539;SDS011;69869;48.036;15.780;2024-01-15T14:15:02;1.10;;;1.02;;
80539;SDS011;69869;48.036;15.780;2024-01-15T14:17:28;0.90;;;0.90;;
80539;SDS011;69869;48.036;15.780;2024-01-15T14:19:54;1.05;;;1.02;;
80539;SDS011;69869;48.036;15.780;2024-01-15T14:22:20;1.15;;;1.00;;
80539;SDS011;69869;48.036;15.780;2024-01-15T14:24:45;1.02;;;1.00;;
80539;SDS011;69869;48.036;15.780;2024-01-15T14:27:11;1.38;;;1.20;;
80539;SDS011;69869;48.036;15.780;2024-01-15T14:29:37;1.23;;;1.00;;
80539;SDS011;69869;48.036;15.780;2024-01-15T14:32:03;1.40;;;1.10;;
80539;SDS011;69869;48.036;15.780;2024-01-15T14:34:30;1.00;;;1.00;;
80539;SDS011;69869;48.036;15.780;2024-01-15T14:36:55;1.15;;;1.02;;
80539;SDS011;69869;48.036;15.780;2024-01-15T14:39:24;1.17;;;1.08;;
80539;SDS011;69869;48.036;15.780;2024-01-15T14:41:50;1.00;;;0.93;;
80539;SDS011;69869;48.036;15.780;2024-01-15T14:44:16;1.10;;;1.00;;
80539;SDS011;69869;48.036;15.780;2024-01-15T14:46:42;1.55;;;1.10;;